MOUNT RAINIER
GEOLOGY & WEATHER
Hello guest! [ Log In ]
morageology.com Water Data for Ashford 3W RAWS at Ashford, WA

Ashford 3W RAWS at Ashford, WA

Date Range to view:
 
[ Graphical View | Weather History ]

View this data in a CSV Format

GMT Date/Time Local Date/Time Air Temperature (°C) Dew Point Temperature (°C) Relative Humidity (%) Wind Direction (°) Wind Speed (mph) Wind Gust Speed (mph) Rainfall (in) Solar Radiation (w/m2) Battery (V)
2023-11-29 08:10:00 2023-11-29 00:10:00 -3.3333 -4.0194 95.0 120 0.00 2.00 6.73 0.00 12.7
2023-11-29 09:10:00 2023-11-29 01:10:00 -3.8889 -4.7122 94.0 120 0.00 0.00 6.73 0.00 12.7
2023-11-29 10:10:00 2023-11-29 02:10:00 -3.8889 -4.7122 94.0 120 0.00 1.00 6.73 0.00 12.7
2023-11-29 11:10:00 2023-11-29 03:10:00 -3.8889 -4.7122 94.0 109 0.00 2.00 6.73 0.00 12.7
2023-11-29 12:10:00 2023-11-29 04:10:00 -3.8889 -4.7122 94.0 160 0.00 3.00 6.73 0.00 12.7
2023-11-29 13:10:00 2023-11-29 05:10:00 -3.8889 -4.7122 94.0 150 0.00 2.00 6.73 0.00 12.7
2023-11-29 14:10:00 2023-11-29 06:10:00 -3.3333 -4.1605 94.0 88 0.00 2.00 6.73 0.00 12.6
2023-11-29 15:10:00 2023-11-29 07:10:00 -2.7778 -3.6087 94.0 103 0.00 2.00 6.73 0.00 12.7
2023-11-29 16:10:00 2023-11-29 08:10:00 -2.7778 -3.4670 95.0 137 0.00 2.00 6.73 6.00 12.6
2023-11-29 17:10:00 2023-11-29 09:10:00 -1.6667 -2.3623 95.0 116 0.00 1.00 6.73 27.00 12.7
2023-11-29 18:10:00 2023-11-29 10:10:00 -0.5556 -1.2576 95.0 139 0.00 1.00 6.73 68.00 12.7
2023-11-29 19:10:00 2023-11-29 11:10:00 0.5556 -0.2986 94.0 174 0.00 1.00 6.74 103.00 12.9
2023-11-29 20:10:00 2023-11-29 12:10:00 2.2222 1.2073 93.0 144 0.00 2.00 6.74 179.00 13.5
2023-11-29 22:10:00 2023-11-29 14:10:00 2.7778 0.5064 85.0 149 0.00 3.00 6.74 95.00 13.0
2023-11-29 23:10:00 2023-11-29 15:10:00 1.6667 0.5066 92.0 287 0.00 2.00 6.74 47.00 12.9
2023-11-30 00:10:00 2023-11-29 16:10:00 0.5556 -0.2986 94.0 10 0.00 2.00 6.74 16.00 12.7
2023-11-30 01:10:00 2023-11-29 17:10:00 0.0000 -0.7053 95.0 76 0.00 1.00 6.74 1.00 12.7
2023-11-30 02:10:00 2023-11-29 18:10:00 -0.5556 -1.2576 95.0 81 0.00 2.00 6.74 0.00 12.7
2023-11-30 03:10:00 2023-11-29 19:10:00 -0.5556 -1.1146 96.0 140 0.00 2.00 6.74 0.00 12.7
2023-11-30 04:10:00 2023-11-29 20:10:00 -0.5556 -1.1146 96.0 86 0.00 2.00 6.74 0.00 12.7
2023-11-30 05:10:00 2023-11-29 21:10:00 -0.5556 -1.1146 96.0 131 0.00 2.00 6.74 0.00 12.7
2023-11-30 06:10:00 2023-11-29 22:10:00 -0.5556 -1.1146 96.0 124 0.00 2.00 6.74 0.00 12.7
2023-11-30 07:10:00 2023-11-29 23:10:00 -0.5556 -1.1146 96.0 138 1.00 3.00 6.74 0.00 12.7
2023-11-30 08:10:00 2023-11-30 00:10:00 -0.5556 -1.1146 96.0 121 2.00 3.00 6.74 0.00 12.7
2023-11-30 09:10:00 2023-11-30 01:10:00 -0.5556 -1.1146 96.0 129 1.00 2.00 6.74 0.00 12.7
2023-11-30 10:10:00 2023-11-30 02:10:00 -0.5556 -1.1146 96.0 124 1.00 2.00 6.74 0.00 12.7
2023-11-30 11:10:00 2023-11-30 03:10:00 -0.5556 -1.1146 96.0 115 1.00 3.00 6.74 0.00 12.6
2023-11-30 12:10:00 2023-11-30 04:10:00 0.0000 -0.5616 96.0 105 1.00 3.00 6.74 0.00 12.6
2023-11-30 13:10:00 2023-11-30 05:10:00 0.0000 -0.5616 96.0 113 1.00 2.00 6.74 0.00 12.6
2023-11-30 14:10:00 2023-11-30 06:10:00 0.0000 -0.5616 96.0 109 0.00 2.00 6.74 0.00 12.6
2023-11-30 15:10:00 2023-11-30 07:10:00 0.5556 -0.0086 96.0 348 2.00 3.00 6.74 0.00 12.6
2023-11-30 16:10:00 2023-11-30 08:10:00 1.1111 0.5444 96.0 3 2.00 4.00 6.76 6.00 12.6
2023-11-30 17:10:00 2023-11-30 09:10:00 1.6667 1.0973 96.0 19 2.00 4.00 6.76 52.00 12.7
2023-11-30 18:10:00 2023-11-30 10:10:00 3.3333 2.4596 94.0 34 2.00 3.00 6.76 150.00 13.0
2023-11-30 19:10:00 2023-11-30 11:10:00 4.4444 3.2579 92.0 107 0.00 3.00 6.76 156.00 13.1
2023-11-30 20:10:00 2023-11-30 12:10:00 5.0000 3.8082 92.0 180 0.00 2.00 6.76 128.00 13.0
2023-11-30 21:10:00 2023-11-30 13:10:00 5.0000 3.4959 90.0 219 0.00 7.00 6.76 78.00 12.9
2023-11-30 22:10:00 2023-11-30 14:10:00 5.0000 3.4959 90.0 193 2.00 8.00 6.76 48.00 12.8
2023-11-30 23:10:00 2023-11-30 15:10:00 3.8889 2.8602 93.0 271 0.00 6.00 6.76 22.00 12.7
2023-12-01 00:10:00 2023-11-30 16:10:00 2.7778 2.0563 95.0 284 0.00 2.00 6.79 8.00 12.7
2023-12-01 01:10:00 2023-11-30 17:10:00 2.7778 2.2033 96.0 310 0.00 4.00 6.83 0.00 12.7
2023-12-01 02:10:00 2023-11-30 18:10:00 2.2222 1.6503 96.0 78 0.00 2.00 6.88 0.00 12.6
2023-12-01 03:10:00 2023-11-30 19:10:00 1.6667 1.0973 96.0 72 0.00 1.00 6.90 0.00 12.6
2023-12-01 04:10:00 2023-11-30 20:10:00 1.6667 1.0973 96.0 52 0.00 2.00 6.95 0.00 12.6
2023-12-01 05:10:00 2023-11-30 21:10:00 1.1111 0.5444 96.0 220 0.00 3.00 6.95 0.00 12.6
2023-12-01 06:10:00 2023-11-30 22:10:00 0.5556 -0.0086 96.0 138 0.00 2.00 6.96 0.00 12.6
2023-12-01 07:10:00 2023-11-30 23:10:00 0.5556 0.1343 97.0 92 1.00 3.00 6.96 0.00 12.6
2023-12-01 08:10:00 2023-12-01 00:10:00 0.5556 0.1343 97.0 20 0.00 5.00 6.96 0.00 12.6
2023-12-01 09:10:00 2023-12-01 01:10:00 1.1111 0.6880 97.0 51 0.00 4.00 6.96 0.00 12.6
2023-12-01 10:10:00 2023-12-01 02:10:00 1.6667 1.2416 97.0 331 1.00 3.00 6.96 0.00 12.6
2023-12-01 11:10:00 2023-12-01 03:10:00 1.6667 1.2416 97.0 337 3.00 8.00 6.96 0.00 12.6
2023-12-01 12:10:00 2023-12-01 04:10:00 2.2222 1.7952 97.0 358 2.00 8.00 6.97 0.00 12.6
2023-12-01 13:10:00 2023-12-01 05:10:00 2.2222 1.2073 93.0 188 2.00 8.00 7.10 0.00 12.6
2023-12-01 14:10:00 2023-12-01 06:10:00 1.6667 0.9517 95.0 294 2.00 8.00 7.18 0.00 12.6
2023-12-01 15:10:00 2023-12-01 07:10:00 0.5556 -0.1529 95.0 345 0.00 4.00 7.30 0.00 12.6
2023-12-01 16:10:00 2023-12-01 08:10:00 0.5556 -0.0086 96.0 98 0.00 2.00 7.32 2.00 12.6
2023-12-01 17:10:00 2023-12-01 09:10:00 1.1111 0.5444 96.0 352 1.00 3.00 7.37 13.00 12.6
2023-12-01 18:10:00 2023-12-01 10:10:00 0.5556 -0.0086 96.0 162 0.00 3.00 7.47 16.00 12.6
2023-12-01 19:10:00 2023-12-01 11:10:00 1.1111 0.6880 97.0 278 0.00 2.00 7.49 49.00 12.6
2023-12-01 20:10:00 2023-12-01 12:10:00 2.2222 1.7952 97.0 14 1.00 3.00 7.51 53.00 12.7
2023-12-01 21:10:00 2023-12-01 13:10:00 2.7778 2.3489 97.0 40 0.00 4.00 7.52 61.00 12.7
2023-12-01 22:10:00 2023-12-01 14:10:00 3.3333 2.9025 97.0 34 0.00 2.00 7.54 38.00 12.6
2023-12-02 00:10:00 2023-12-01 16:10:00 2.7778 2.3489 97.0 32 0.00 2.00 7.54 8.00 12.6
2023-12-02 01:10:00 2023-12-01 17:10:00 2.2222 1.7952 97.0 64 0.00 1.00 7.54 0.00 12.6
2023-12-02 02:10:00 2023-12-01 18:10:00 2.2222 1.7952 97.0 358 1.00 4.00 7.55 0.00 12.6
2023-12-02 03:10:00 2023-12-01 19:10:00 2.2222 1.7952 97.0 106 0.00 4.00 7.60 0.00 12.6
2023-12-02 04:10:00 2023-12-01 20:10:00 2.7778 2.3489 97.0 337 2.00 4.00 7.64 0.00 12.6
2023-12-02 05:10:00 2023-12-01 21:10:00 2.2222 1.7952 97.0 31 0.00 3.00 7.71 0.00 12.6
2023-12-02 06:10:00 2023-12-01 22:10:00 1.6667 1.2416 97.0 355 1.00 3.00 7.73 0.00 12.6
2023-12-02 07:10:00 2023-12-01 23:10:00 1.6667 1.2416 97.0 6 1.00 4.00 7.78 0.00 12.6
2023-12-02 08:10:00 2023-12-02 00:10:00 2.2222 1.7952 97.0 354 3.00 4.00 7.85 0.00 12.6
2023-12-02 09:10:00 2023-12-02 01:10:00 2.7778 2.3489 97.0 3 4.00 7.00 7.91 0.00 12.6
2023-12-02 10:10:00 2023-12-02 02:10:00 2.7778 2.3489 97.0 19 3.00 7.00 8.02 0.00 12.6
2023-12-02 11:10:00 2023-12-02 03:10:00 3.3333 2.9025 97.0 29 2.00 6.00 8.13 0.00 12.6
2023-12-02 12:10:00 2023-12-02 04:10:00 3.3333 2.9025 97.0 1 1.00 5.00 8.30 0.00 12.6
2023-12-02 13:10:00 2023-12-02 05:10:00 2.7778 2.3489 97.0 360 4.00 7.00 8.43 0.00 12.5
2023-12-02 14:10:00 2023-12-02 06:10:00 3.3333 2.9025 97.0 26 3.00 10.00 8.56 0.00 12.6
2023-12-02 15:10:00 2023-12-02 07:10:00 2.7778 2.2033 96.0 342 0.00 11.00 8.62 0.00 12.6
2023-12-02 16:10:00 2023-12-02 08:10:00 2.7778 2.2033 96.0 124 1.00 3.00 8.63 3.00 12.6
2023-12-02 17:10:00 2023-12-02 09:10:00 2.7778 2.3489 97.0 2 0.00 3.00 8.65 15.00 12.6
2023-12-02 18:10:00 2023-12-02 10:10:00 3.8889 3.3092 96.0 159 0.00 3.00 8.65 83.00 12.8
2023-12-02 19:10:00 2023-12-02 11:10:00 5.0000 4.4151 96.0 199 2.00 3.00 8.65 96.00 12.8
2023-12-02 20:10:00 2023-12-02 12:10:00 5.5556 4.8177 95.0 153 0.00 2.00 8.65 121.00 12.8
2023-12-02 21:10:00 2023-12-02 13:10:00 3.8889 2.7077 92.0 196 0.00 8.00 8.72 41.00 12.6
2023-12-02 22:10:00 2023-12-02 14:10:00 4.4444 3.4111 93.0 37 0.00 5.00 8.74 84.00 12.7
2023-12-02 23:10:00 2023-12-02 15:10:00 3.8889 3.1609 95.0 139 1.00 4.00 8.78 36.00 12.6
2023-12-03 00:10:00 2023-12-02 16:10:00 3.3333 2.7562 96.0 22 0.00 2.00 8.78 22.00 12.6
2023-12-03 01:10:00 2023-12-02 17:10:00 3.3333 2.7562 96.0 0 0.00 4.00 8.80 1.00 12.5
2023-12-03 02:10:00 2023-12-02 18:10:00 2.7778 2.2033 96.0 16 2.00 4.00 8.83 0.00 12.5
2023-12-03 03:10:00 2023-12-02 19:10:00 2.7778 2.3489 97.0 357 0.00 4.00 8.83 0.00 12.6
2023-12-03 04:10:00 2023-12-02 20:10:00 2.2222 1.7952 97.0 50 0.00 2.00 8.83 0.00 12.6
2023-12-03 05:10:00 2023-12-02 21:10:00 2.2222 1.7952 97.0 11 0.00 4.00 8.83 0.00 12.6
2023-12-03 06:10:00 2023-12-02 22:10:00 2.2222 1.7952 97.0 2 2.00 5.00 8.83 0.00 12.6
2023-12-03 07:10:00 2023-12-02 23:10:00 2.2222 1.7952 97.0 3 2.00 4.00 8.83 0.00 12.6
2023-12-03 08:10:00 2023-12-03 00:10:00 2.2222 1.7952 97.0 14 0.00 4.00 8.83 0.00 12.5
2023-12-03 09:10:00 2023-12-03 01:10:00 2.7778 2.3489 97.0 335 2.00 5.00 8.83 0.00 12.5
2023-12-03 10:10:00 2023-12-03 02:10:00 2.7778 2.3489 97.0 3 1.00 5.00 8.84 0.00 12.5
2023-12-03 11:10:00 2023-12-03 03:10:00 2.7778 2.3489 97.0 50 0.00 4.00 8.84 0.00 12.5
2023-12-03 12:10:00 2023-12-03 04:10:00 3.8889 3.4561 97.0 343 2.00 7.00 8.85 0.00 12.5
2023-12-03 13:10:00 2023-12-03 05:10:00 3.8889 3.3092 96.0 50 1.00 7.00 8.92 0.00 12.5
2023-12-03 14:10:00 2023-12-03 06:10:00 4.4444 3.8621 96.0 18 3.00 8.00 9.00 0.00 12.5
2023-12-03 15:10:00 2023-12-03 07:10:00 4.4444 4.0097 97.0 0 3.00 7.00 9.07 0.00 12.5
2023-12-03 16:10:00 2023-12-03 08:10:00 5.0000 4.5633 97.0 343 4.00 12.00 9.19 1.00 12.5
2023-12-03 17:10:00 2023-12-03 09:10:00 5.0000 4.5633 97.0 3 3.00 7.00 9.33 5.00 12.6
2023-12-03 18:10:00 2023-12-03 10:10:00 5.5556 5.1169 97.0 340 4.00 10.00 9.38 44.00 12.6
2023-12-03 19:10:00 2023-12-03 11:10:00 6.1111 5.5209 96.0 358 3.00 7.00 9.38 31.00 12.5
2023-12-03 20:10:00 2023-12-03 12:10:00 6.6667 6.0739 96.0 77 0.00 4.00 9.39 37.00 12.6
2023-12-03 21:10:00 2023-12-03 13:10:00 7.2222 6.6268 96.0 359 1.00 5.00 9.40 61.00 12.6
2023-12-03 22:10:00 2023-12-03 14:10:00 7.7778 7.1797 96.0 200 1.00 5.00 9.41 74.00 12.6
2023-12-03 23:10:00 2023-12-03 15:10:00 8.8889 8.1312 95.0 87 0.00 5.00 9.41 106.00 12.7
2023-12-04 00:10:00 2023-12-03 16:10:00 7.7778 7.1797 96.0 94 0.00 6.00 9.41 27.00 12.6
2023-12-04 01:10:00 2023-12-03 17:10:00 7.2222 6.6268 96.0 52 0.00 3.00 9.41 1.00 12.6
2023-12-04 02:10:00 2023-12-03 18:10:00 6.1111 5.5209 96.0 66 0.00 2.00 9.41 0.00 12.5
2023-12-04 03:10:00 2023-12-03 19:10:00 5.5556 5.1169 97.0 20 1.00 3.00 9.41 0.00 12.6
2023-12-04 04:10:00 2023-12-03 20:10:00 5.0000 4.5633 97.0 82 0.00 3.00 9.41 0.00 12.5
2023-12-04 05:10:00 2023-12-03 21:10:00 5.0000 4.5633 97.0 31 2.00 9.00 9.41 0.00 12.5
2023-12-04 06:10:00 2023-12-03 22:10:00 4.4444 4.0097 97.0 76 1.00 5.00 9.41 0.00 12.5
2023-12-04 07:10:00 2023-12-03 23:10:00 4.4444 4.0097 97.0 2 3.00 4.00 9.41 0.00 12.5
2023-12-04 08:10:00 2023-12-04 00:10:00 3.3333 2.9025 97.0 42 1.00 7.00 9.41 0.00 12.5
2023-12-04 09:10:00 2023-12-04 01:10:00 3.8889 3.4561 97.0 18 1.00 6.00 9.41 0.00 12.5
2023-12-04 10:10:00 2023-12-04 02:10:00 3.3333 2.9025 97.0 24 1.00 6.00 9.41 0.00 12.5
2023-12-04 11:10:00 2023-12-04 03:10:00 2.7778 2.3489 97.0 108 0.00 3.00 9.41 0.00 12.5
2023-12-04 12:10:00 2023-12-04 04:10:00 3.8889 3.4561 97.0 116 1.00 3.00 9.41 0.00 12.5
2023-12-04 13:10:00 2023-12-04 05:10:00 5.0000 4.5633 97.0 68 2.00 5.00 9.41 0.00 12.5
2023-12-04 14:10:00 2023-12-04 06:10:00 5.5556 5.1169 97.0 21 3.00 5.00 9.41 0.00 12.5
2023-12-04 15:10:00 2023-12-04 07:10:00 6.6667 6.2241 97.0 45 2.00 4.00 9.49 0.00 12.5
2023-12-04 16:10:00 2023-12-04 08:10:00 7.7778 7.3312 97.0 356 2.00 5.00 9.54 1.00 12.5
2023-12-04 17:10:00 2023-12-04 09:10:00 8.3333 7.8848 97.0 348 2.00 7.00 9.61 11.00 12.5
2023-12-04 18:10:00 2023-12-04 10:10:00 9.4444 8.9920 97.0 332 3.00 7.00 9.63 20.00 12.5
2023-12-04 19:10:00 2023-12-04 11:10:00 9.4444 8.9920 97.0 343 2.00 7.00 9.66 25.00 12.6
2023-12-04 20:10:00 2023-12-04 12:10:00 10.0000 9.3913 96.0 359 3.00 10.00 9.68 21.00 12.5
2023-12-04 21:10:00 2023-12-04 13:10:00 10.5556 9.9442 96.0 357 3.00 8.00 9.72 16.00 12.6
2023-12-04 22:10:00 2023-12-04 14:10:00 10.5556 9.9442 96.0 352 3.00 9.00 9.72 26.00 12.5
2023-12-04 23:10:00 2023-12-04 15:10:00 10.5556 9.9442 96.0 348 3.00 10.00 9.77 15.00 12.5
2023-12-05 00:10:00 2023-12-04 16:10:00 11.1111 10.4970 96.0 344 3.00 10.00 9.80 3.00 12.5
2023-12-05 01:10:00 2023-12-04 17:10:00 11.1111 10.3400 95.0 320 2.00 9.00 9.81 0.00 12.5
2023-12-05 02:10:00 2023-12-04 18:10:00 11.6667 10.7330 94.0 16 2.00 8.00 9.83 0.00 12.5
2023-12-05 03:10:00 2023-12-04 19:10:00 11.6667 11.0499 96.0 356 3.00 8.00 9.86 0.00 12.5
2023-12-05 04:10:00 2023-12-04 20:10:00 12.2222 11.4444 95.0 356 2.00 8.00 9.86 0.00 12.5
2023-12-05 05:10:00 2023-12-04 21:10:00 11.6667 10.8922 95.0 341 2.00 7.00 9.94 0.00 12.6
2023-12-05 06:10:00 2023-12-04 22:10:00 12.2222 11.6028 96.0 344 3.00 9.00 10.16 0.00 12.5
2023-12-05 07:10:00 2023-12-04 23:10:00 12.2222 11.6028 96.0 342 3.00 9.00 10.43 0.00 12.6
2023-12-05 08:10:00 2023-12-05 00:10:00 12.2222 11.6028 96.0 329 2.00 9.00 10.74 0.00 12.6
2023-12-05 09:10:00 2023-12-05 01:10:00 12.2222 11.6028 96.0 343 2.00 5.00 10.92 0.00 12.5
2023-12-05 10:10:00 2023-12-05 02:10:00 12.2222 11.6028 96.0 347 1.00 7.00 11.04 0.00 12.5
2023-12-05 11:10:00 2023-12-05 03:10:00 12.2222 11.6028 96.0 352 3.00 5.00 11.10 0.00 12.6
2023-12-05 12:10:00 2023-12-05 04:10:00 12.2222 11.6028 96.0 338 2.00 8.00 11.14 0.00 12.5
2023-12-05 13:10:00 2023-12-05 05:10:00 12.2222 11.6028 96.0 316 2.00 4.00 11.22 0.00 12.6
2023-12-05 14:10:00 2023-12-05 06:10:00 11.6667 11.0499 96.0 29 3.00 5.00 11.38 0.00 12.5
2023-12-05 15:10:00 2023-12-05 07:10:00 11.6667 11.0499 96.0 31 2.00 4.00 11.49 0.00 12.5
2023-12-05 16:10:00 2023-12-05 08:10:00 11.6667 11.0499 96.0 10 3.00 7.00 11.56 0.00 12.5
2023-12-05 17:10:00 2023-12-05 09:10:00 11.6667 11.0499 96.0 32 2.00 7.00 11.64 6.00 12.5
2023-12-05 18:10:00 2023-12-05 10:10:00 11.6667 11.0499 96.0 356 1.00 5.00 11.71 14.00 12.5
2023-12-05 19:10:00 2023-12-05 11:10:00 11.6667 11.0499 96.0 330 0.00 3.00 11.80 26.00 12.5
2023-12-05 20:10:00 2023-12-05 12:10:00 11.6667 11.0499 96.0 13 2.00 4.00 11.90 24.00 12.5
2023-12-05 21:10:00 2023-12-05 13:10:00 11.6667 11.0499 96.0 3 2.00 4.00 11.99 26.00 12.6
2023-12-05 22:10:00 2023-12-05 14:10:00 11.6667 11.0499 96.0 75 2.00 6.00 12.16 18.00 12.5
2023-12-05 23:10:00 2023-12-05 15:10:00 11.1111 10.4970 96.0 186 2.00 6.00 12.33 8.00 12.5
2023-12-06 00:10:00 2023-12-05 16:10:00 9.4444 8.8384 96.0 187 2.00 9.00 12.50 3.00 12.5
2023-12-06 01:10:00 2023-12-05 17:10:00 8.3333 7.7326 96.0 6 0.00 7.00 12.67 0.00 12.5
2023-12-06 02:10:00 2023-12-05 18:10:00 8.3333 7.7326 96.0 347 0.00 3.00 12.74 0.00 12.5
2023-12-06 03:10:00 2023-12-05 19:10:00 8.8889 8.4384 97.0 85 0.00 3.00 12.88 0.00 12.5
2023-12-06 04:10:00 2023-12-05 20:10:00 8.8889 8.4384 97.0 100 1.00 4.00 13.09 0.00 12.5
2023-12-06 05:10:00 2023-12-05 21:10:00 8.3333 7.8848 97.0 82 2.00 7.00 13.37 0.00 12.5
2023-12-06 06:10:00 2023-12-05 22:10:00 8.8889 8.4384 97.0 352 1.00 3.00 13.43 0.00 12.5
2023-12-06 07:10:00 2023-12-05 23:10:00 8.8889 8.4384 97.0 219 2.00 8.00 13.46 0.00 12.5